Time;durP1;ratioP1;P1;durP2;ratioP2;P2;SDS_P1;SDS_P2;PMS_P1;PMS_P2;Temp;Humidity;BMP_temperature;BMP_pressure;BME280_temperature;BME280_humidity;BME280_pressure;Samples;Min_cycle;Max_cycle;Signal;HPM_P1;HPM_P2
2023/01/19 00:00:16;;;;;;;13.70;5.60;;;2.50;99.90;;;;;;5008713;28;20045;-59
2023/01/19 00:02:46;;;;;;;12.20;6.13;;;2.40;99.90;;;;;;4985781;28;20128;-60
2023/01/19 00:05:13;;;;;;;16.33;7.35;;;2.40;99.90;;;;;;4989628;28;20057;-58
2023/01/19 00:07:38;;;;;;;13.82;4.80;;;2.50;99.90;;;;;;4994185;28;20077;-59
2023/01/19 00:10:05;;;;;;;10.48;4.30;;;2.50;99.90;;;;;;4989689;28;20057;-61
2023/01/19 00:12:31;;;;;;;11.13;4.53;;;2.40;99.90;;;;;;4992603;28;20104;-61
2023/01/19 00:14:57;;;;;;;10.60;4.93;;;2.50;99.90;;;;;;4993777;28;20132;-60
2023/01/19 00:17:23;;;;;;;9.80;4.68;;;2.50;99.90;;;;;;4989324;28;20052;-59
2023/01/19 00:19:49;;;;;;;13.60;4.88;;;2.40;99.90;;;;;;4985352;28;20096;-59
2023/01/19 00:22:14;;;;;;;15.80;5.50;;;2.50;99.90;;;;;;4997137;28;20120;-58
2023/01/19 00:24:40;;;;;;;13.80;4.70;;;2.40;99.90;;;;;;4992726;28;20046;-61
2023/01/19 00:27:06;;;;;;;16.75;4.97;;;2.40;99.90;;;;;;4993703;28;20085;-61
2023/01/19 00:29:32;;;;;;;9.10;4.55;;;2.40;99.90;;;;;;4958329;28;20136;-59
2023/01/19 00:32:03;;;;;;;12.05;3.78;;;2.40;99.90;;;;;;4989507;28;20049;-60
2023/01/19 00:34:35;;;;;;;15.43;4.30;;;2.40;99.90;;;;;;4982298;28;20050;-59
2023/01/19 00:37:08;;;;;;;9.43;3.63;;;2.50;99.90;;;;;;4991704;28;20054;-59
2023/01/19 00:39:34;;;;;;;10.52;2.85;;;2.40;99.90;;;;;;4989320;28;20045;-61
2023/01/19 00:44:44;;;;;;;9.98;4.20;;;2.30;99.90;;;;;;4985401;28;20045;-61
2023/01/19 00:47:10;;;;;;;10.50;4.30;;;2.30;99.90;;;;;;4988327;28;20060;-60
2023/01/19 00:49:36;;;;;;;11.10;4.40;;;2.30;99.90;;;;;;4991414;28;20139;-60
2023/01/19 00:52:01;;;;;;;11.73;3.97;;;2.30;99.90;;;;;;4986554;28;20057;-59
2023/01/19 00:54:27;;;;;;;11.68;4.50;;;2.40;99.90;;;;;;4991296;28;20124;-60
2023/01/19 00:56:53;;;;;;;9.95;4.43;;;2.40;99.90;;;;;;4988840;28;20041;-59
2023/01/19 00:59:19;;;;;;;7.65;3.72;;;2.40;99.90;;;;;;4989864;28;20069;-59
2023/01/19 01:01:44;;;;;;;10.65;2.97;;;2.40;99.90;;;;;;4991921;28;20053;-59
2023/01/19 01:04:12;;;;;;;7.93;3.10;;;2.40;99.90;;;;;;4988243;28;20061;-60
2023/01/19 01:06:38;;;;;;;14.02;4.25;;;2.40;99.90;;;;;;4988310;28;22457;-59
2023/01/19 01:09:10;;;;;;;9.70;4.40;;;2.50;99.90;;;;;;4988318;28;20052;-59
2023/01/19 01:11:45;;;;;;;10.23;3.60;;;2.40;99.90;;;;;;4986229;28;20515;-60
2023/01/19 01:14:12;;;;;;;8.23;3.97;;;2.50;99.90;;;;;;4963097;28;20061;-59
2023/01/19 01:16:38;;;;;;;10.25;4.47;;;2.50;99.90;;;;;;4988735;28;20050;-60
2023/01/19 01:19:03;;;;;;;9.35;2.30;;;2.60;99.90;;;;;;4947361;28;1139409;-60
2023/01/19 01:21:29;;;;;;;11.20;3.90;;;2.60;99.90;;;;;;4986365;28;20049;-60
2023/01/19 01:23:55;;;;;;;11.07;3.65;;;2.60;99.90;;;;;;4991783;28;20081;-58
2023/01/19 01:26:21;;;;;;;14.38;4.78;;;2.60;99.90;;;;;;4988161;28;20149;-59
2023/01/19 01:28:47;;;;;;;9.73;4.13;;;2.60;99.90;;;;;;4989482;28;20057;-59
2023/01/19 01:31:13;;;;;;;10.35;3.83;;;2.60;99.90;;;;;;4990620;28;20131;-59
2023/01/19 01:33:38;;;;;;;11.45;4.10;;;2.60;99.90;;;;;;4986143;28;20052;-59
2023/01/19 01:36:05;;;;;;;8.50;3.63;;;2.70;99.90;;;;;;4986677;28;20057;-59
2023/01/19 01:38:30;;;;;;;7.57;3.40;;;2.70;99.90;;;;;;4987921;28;20897;-60
2023/01/19 01:40:56;;;;;;;12.52;4.03;;;2.70;99.90;;;;;;4987573;28;20095;-59
2023/01/19 01:43:22;;;;;;;12.10;4.15;;;2.70;99.90;;;;;;4989771;28;20048;-59
2023/01/19 01:45:48;;;;;;;8.40;2.83;;;2.70;99.90;;;;;;4969909;28;20070;-60
2023/01/19 01:48:22;;;;;;;7.50;2.55;;;2.70;99.90;;;;;;4970213;28;20061;-58
2023/01/19 01:51:24;;;;;;;6.82;2.40;;;2.80;99.90;;;;;;4985169;28;20451;-60
2023/01/19 01:54:22;;;;;;;7.60;2.00;;;2.80;99.90;;;;;;4990804;28;20068;-61
2023/01/19 01:56:51;;;;;;;9.88;4.32;;;2.80;99.90;;;;;;4971635;28;20041;-59
2023/01/19 01:59:50;;;;;;;11.73;4.05;;;2.90;99.90;;;;;;4985505;28;20693;-58
2023/01/19 02:05:15;;;;;;;8.43;2.92;;;3.00;99.90;;;;;;4994645;28;20041;-60
2023/01/19 02:13:21;;;;;;;6.82;2.75;;;3.00;99.90;;;;;;4997925;28;20103;-59
2023/01/19 02:15:57;;;;;;;11.23;3.50;;;3.00;99.90;;;;;;4986320;28;20084;-59
2023/01/19 02:18:28;;;;;;;7.60;3.92;;;3.00;99.90;;;;;;4994421;28;20054;-59
2023/01/19 02:21:12;;;;;;;7.32;4.00;;;3.00;99.90;;;;;;5032344;28;20071;-61
2023/01/19 02:23:38;;;;;;;9.32;4.10;;;3.00;99.90;;;;;;5033799;28;20189;-60
2023/01/19 02:26:06;;;;;;;6.25;4.20;;;3.10;99.90;;;;;;5033327;28;20087;-60
2023/01/19 02:28:32;;;;;;;8.73;5.10;;;3.00;99.90;;;;;;5032454;28;20132;-60
2023/01/19 02:30:58;;;;;;;10.60;5.13;;;3.10;99.90;;;;;;5013278;28;20130;-61
2023/01/19 02:33:24;;;;;;;12.57;5.10;;;3.00;99.90;;;;;;5013670;28;21912;-59
2023/01/19 02:35:51;;;;;;;10.30;5.65;;;3.00;99.90;;;;;;5029311;28;20052;-59
2023/01/19 02:38:19;;;;;;;8.50;4.70;;;3.00;99.90;;;;;;5012059;28;20136;-61
2023/01/19 02:40:46;;;;;;;5.35;4.15;;;2.90;99.90;;;;;;5019190;28;20180;-60
2023/01/19 02:43:14;;;;;;;7.15;4.55;;;2.90;99.90;;;;;;5029475;28;20084;-60
2023/01/19 02:45:41;;;;;;;8.02;4.32;;;2.90;99.90;;;;;;5009347;28;20954;-59
2023/01/19 02:48:06;;;;;;;10.48;4.57;;;2.90;99.90;;;;;;5011688;28;20051;-59
2023/01/19 02:50:40;;;;;;;8.98;4.32;;;2.90;99.90;;;;;;5038638;28;20136;-60
2023/01/19 02:53:19;;;;;;;5.07;3.60;;;2.90;99.90;;;;;;5043604;28;20044;-60
2023/01/19 02:55:52;;;;;;;5.28;3.40;;;2.90;99.90;;;;;;5033956;28;20045;-60
2023/01/19 02:59:00;;;;;;;6.65;4.00;;;2.90;99.90;;;;;;5034300;28;20136;-60
2023/01/19 03:01:59;;;;;;;6.75;3.80;;;2.90;99.90;;;;;;4986947;28;20099;-60
2023/01/19 03:04:50;;;;;;;8.50;4.72;;;2.90;99.90;;;;;;5028458;28;20052;-60
2023/01/19 03:07:26;;;;;;;5.07;3.92;;;2.90;99.90;;;;;;5004912;28;20059;-60
2023/01/19 03:10:13;;;;;;;8.43;3.78;;;2.90;99.90;;;;;;5011901;28;20045;-60
2023/01/19 03:12:55;;;;;;;9.07;4.72;;;2.90;99.90;;;;;;5030439;28;20141;-59
2023/01/19 03:15:27;;;;;;;7.22;4.30;;;2.90;99.90;;;;;;5030493;28;20060;-59
2023/01/19 03:17:56;;;;;;;8.13;3.67;;;2.90;99.90;;;;;;5027121;28;20049;-61
2023/01/19 03:20:27;;;;;;;7.57;4.15;;;2.90;99.90;;;;;;4996845;28;20060;-61
2023/01/19 03:22:57;;;;;;;5.10;3.20;;;2.90;99.90;;;;;;5030704;28;20136;-60
2023/01/19 03:25:25;;;;;;;10.40;4.60;;;2.80;99.90;;;;;;4996544;28;20045;-59
2023/01/19 03:27:53;;;;;;;6.15;3.83;;;2.80;99.90;;;;;;4979694;28;20094;-59
2023/01/19 03:30:31;;;;;;;6.53;3.97;;;2.90;99.90;;;;;;5028393;28;20047;-60
2023/01/19 03:33:26;;;;;;;7.55;3.78;;;2.80;99.90;;;;;;5031205;28;20806;-59
2023/01/19 03:35:56;;;;;;;5.97;3.40;;;2.80;99.90;;;;;;5024874;28;20060;-59
2023/01/19 03:38:26;;;;;;;5.78;3.40;;;2.80;99.90;;;;;;5032836;28;20052;-60
2023/01/19 03:40:57;;;;;;;8.27;3.50;;;2.80;99.90;;;;;;5033115;28;20420;-59
2023/01/19 03:43:24;;;;;;;8.10;5.07;;;2.80;99.90;;;;;;4997934;28;20049;-59
2023/01/19 03:45:52;;;;;;;8.10;4.35;;;2.80;99.90;;;;;;5031418;28;20075;-59
2023/01/19 03:48:20;;;;;;;6.35;4.38;;;2.90;99.90;;;;;;5012720;28;20052;-60
2023/01/19 03:50:46;;;;;;;8.00;4.45;;;2.80;99.90;;;;;;5030103;28;20055;-60
2023/01/19 03:53:14;;;;;;;5.80;4.07;;;2.80;99.90;;;;;;5035892;28;20045;-60
2023/01/19 03:55:43;;;;;;;16.92;5.35;;;2.80;99.90;;;;;;5022249;28;20090;-59
2023/01/19 03:58:09;;;;;;;7.75;4.57;;;2.80;99.90;;;;;;5015606;28;20463;-60
2023/01/19 04:00:36;;;;;;;9.75;4.20;;;2.90;99.90;;;;;;5031119;28;20151;-60
2023/01/19 04:03:03;;;;;;;7.10;4.18;;;2.80;99.90;;;;;;5014980;28;21051;-60
2023/01/19 04:05:29;;;;;;;8.55;4.30;;;2.80;99.90;;;;;;5032510;28;20041;-60
2023/01/19 04:07:55;;;;;;;7.57;4.68;;;2.80;99.90;;;;;;5008738;28;20083;-61
2023/01/19 04:10:21;;;;;;;8.50;4.65;;;2.80;99.90;;;;;;5031814;28;20986;-60
2023/01/19 04:12:47;;;;;;;9.27;4.45;;;2.80;99.90;;;;;;5036578;28;20060;-59
2023/01/19 04:15:14;;;;;;;5.72;4.15;;;2.80;99.90;;;;;;5009451;28;20216;-59
2023/01/19 04:17:40;;;;;;;6.72;4.20;;;2.80;99.90;;;;;;5031253;28;20128;-60
2023/01/19 04:20:07;;;;;;;9.05;4.10;;;2.80;99.90;;;;;;5031690;28;20092;-61
2023/01/19 04:22:34;;;;;;;6.65;4.32;;;2.80;99.90;;;;;;5015250;28;20182;-60
2023/01/19 04:25:00;;;;;;;7.55;4.40;;;2.80;99.90;;;;;;5011642;28;20155;-59
2023/01/19 04:27:26;;;;;;;5.82;3.70;;;2.80;99.90;;;;;;5031502;28;20033;-60
2023/01/19 04:29:52;;;;;;;5.60;3.90;;;2.80;99.90;;;;;;5029608;28;20067;-61
2023/01/19 04:32:18;;;;;;;6.07;3.80;;;2.70;99.90;;;;;;5007737;28;20048;-60
2023/01/19 04:34:43;;;;;;;8.52;4.32;;;2.70;99.90;;;;;;4997401;28;20056;-59
2023/01/19 04:37:09;;;;;;;9.48;4.38;;;2.70;99.90;;;;;;5030920;28;20041;-60
2023/01/19 04:39:35;;;;;;;8.20;4.25;;;2.70;99.90;;;;;;5007067;28;20120;-59
2023/01/19 04:42:01;;;;;;;5.75;4.13;;;2.70;99.90;;;;;;5010143;28;20128;-59
2023/01/19 04:44:27;;;;;;;6.00;3.53;;;2.60;99.90;;;;;;5029616;28;20135;-59
2023/01/19 04:46:53;;;;;;;9.48;3.88;;;2.60;99.90;;;;;;5004971;28;20464;-60
2023/01/19 04:49:19;;;;;;;6.30;3.83;;;2.60;99.90;;;;;;5005531;28;20115;-60
2023/01/19 04:51:46;;;;;;;8.13;3.38;;;2.50;99.90;;;;;;5015764;28;20139;-60
2023/01/19 04:54:11;;;;;;;6.22;3.53;;;2.50;99.90;;;;;;5030617;28;20952;-59
2023/01/19 04:56:39;;;;;;;7.97;2.88;;;2.50;99.90;;;;;;5027985;28;20052;-61
2023/01/19 04:59:05;;;;;;;5.65;3.30;;;2.50;99.90;;;;;;5031178;28;20049;-59
2023/01/19 05:01:31;;;;;;;6.15;3.33;;;2.50;99.90;;;;;;5029211;28;20122;-60
2023/01/19 05:04:00;;;;;;;10.60;3.75;;;2.50;99.90;;;;;;5029330;28;20060;-60
2023/01/19 05:06:26;;;;;;;7.10;3.47;;;2.60;99.90;;;;;;4980286;28;20438;-61
2023/01/19 05:08:52;;;;;;;8.82;3.58;;;2.50;99.90;;;;;;5014553;28;20103;-59
2023/01/19 05:11:18;;;;;;;5.40;3.40;;;2.50;99.90;;;;;;5011861;28;20049;-59
2023/01/19 05:13:44;;;;;;;7.88;3.20;;;2.50;99.90;;;;;;5012440;28;20691;-61
2023/01/19 05:16:10;;;;;;;4.72;3.00;;;2.50;99.90;;;;;;5031552;28;20037;-59
2023/01/19 05:18:36;;;;;;;4.88;2.67;;;2.50;99.90;;;;;;5026479;28;20132;-61
2023/01/19 05:21:02;;;;;;;6.82;2.75;;;2.50;99.90;;;;;;5030304;28;20498;-59
2023/01/19 05:23:30;;;;;;;6.45;2.80;;;2.50;99.90;;;;;;5029512;28;20053;-60
2023/01/19 05:25:56;;;;;;;8.57;2.30;;;2.40;99.90;;;;;;5027404;28;20049;-59
2023/01/19 05:28:22;;;;;;;4.47;1.92;;;2.50;99.90;;;;;;5014686;28;20058;-61
2023/01/19 05:30:50;;;;;;;5.65;1.70;;;2.50;99.90;;;;;;5013759;28;20053;-60
2023/01/19 05:33:16;;;;;;;6.90;1.65;;;2.50;99.90;;;;;;5024599;28;21568;-59
2023/01/19 05:35:42;;;;;;;4.88;1.52;;;2.50;99.90;;;;;;5010271;28;20048;-61
2023/01/19 05:38:08;;;;;;;6.32;1.70;;;2.50;99.90;;;;;;5026664;28;20056;-58
2023/01/19 05:40:34;;;;;;;7.03;1.42;;;2.50;99.90;;;;;;4995276;28;20120;-61
2023/01/19 05:43:03;;;;;;;3.35;1.13;;;2.50;99.90;;;;;;5029722;28;20951;-60
2023/01/19 05:45:29;;;;;;;4.50;1.30;;;2.50;99.90;;;;;;5029370;28;20041;-59
2023/01/19 05:47:54;;;;;;;5.85;1.40;;;2.50;99.90;;;;;;5012204;28;20121;-61
2023/01/19 05:50:21;;;;;;;5.63;1.50;;;2.50;99.90;;;;;;5011154;28;20120;-60
2023/01/19 05:52:47;;;;;;;9.52;1.52;;;2.60;99.90;;;;;;5029332;28;20041;-60
2023/01/19 05:55:13;;;;;;;5.70;1.40;;;2.60;99.90;;;;;;5026501;28;20041;-60
2023/01/19 05:57:39;;;;;;;8.05;1.45;;;2.70;99.90;;;;;;5027825;28;20120;-59
2023/01/19 06:00:05;;;;;;;7.38;1.40;;;2.70;99.90;;;;;;5012550;28;20053;-59
2023/01/19 06:02:31;;;;;;;6.57;1.00;;;2.70;99.90;;;;;;5031875;28;20048;-59
2023/01/19 06:04:57;;;;;;;3.40;0.90;;;2.70;99.90;;;;;;5016869;28;20060;-59
2023/01/19 06:07:23;;;;;;;4.03;1.17;;;2.70;99.90;;;;;;5012770;28;20056;-60
2023/01/19 06:09:48;;;;;;;3.60;1.23;;;2.70;99.90;;;;;;5030810;28;20053;-59
2023/01/19 06:12:14;;;;;;;6.35;1.10;;;2.70;99.90;;;;;;5011373;28;20037;-59
2023/01/19 06:14:40;;;;;;;8.27;1.17;;;2.70;99.90;;;;;;5027487;28;20071;-60
2023/01/19 06:17:06;;;;;;;6.53;0.82;;;2.70;99.90;;;;;;4998301;28;20057;-59
2023/01/19 06:19:33;;;;;;;6.10;1.10;;;2.80;99.90;;;;;;5023799;28;20187;-59
2023/01/19 06:21:59;;;;;;;7.72;1.27;;;2.80;99.90;;;;;;4995085;28;20550;-58
2023/01/19 06:24:26;;;;;;;6.45;1.52;;;2.80;99.90;;;;;;5028431;28;20090;-58
2023/01/19 06:26:52;;;;;;;7.35;1.27;;;2.80;99.90;;;;;;5009847;28;20156;-59
2023/01/19 06:29:18;;;;;;;6.60;1.20;;;2.80;99.90;;;;;;5032061;28;20136;-59
2023/01/19 06:31:44;;;;;;;9.95;1.25;;;2.80;99.90;;;;;;5004814;28;20076;-60
2023/01/19 06:34:10;;;;;;;7.78;1.15;;;2.80;99.90;;;;;;5027102;28;20041;-59
2023/01/19 06:36:36;;;;;;;7.43;1.73;;;2.80;99.90;;;;;;5006904;28;20038;-59
2023/01/19 06:39:04;;;;;;;5.90;1.50;;;2.80;99.90;;;;;;5008275;28;20510;-59
2023/01/19 06:41:32;;;;;;;9.52;1.58;;;2.80;99.90;;;;;;5028187;28;20045;-60
2023/01/19 06:43:58;;;;;;;6.95;1.58;;;2.80;99.90;;;;;;5004669;28;20057;-59
2023/01/19 06:46:24;;;;;;;8.95;1.52;;;2.80;99.90;;;;;;5027704;28;20229;-60
2023/01/19 06:48:50;;;;;;;10.25;1.67;;;2.80;99.90;;;;;;5028142;28;20172;-61
2023/01/19 06:51:16;;;;;;;7.80;1.25;;;2.70;99.90;;;;;;4995818;28;21030;-60
2023/01/19 06:53:42;;;;;;;12.02;1.55;;;2.80;99.90;;;;;;5013085;28;20048;-60
2023/01/19 06:56:08;;;;;;;12.85;2.10;;;2.70;99.90;;;;;;5030238;28;20442;-60
2023/01/19 06:58:34;;;;;;;10.63;2.00;;;2.70;99.90;;;;;;5028340;28;20056;-59
2023/01/19 07:01:02;;;;;;;10.13;1.83;;;2.70;99.90;;;;;;5016546;28;20053;-60
2023/01/19 07:03:28;;;;;;;11.23;1.73;;;2.60;99.90;;;;;;5016529;28;20040;-59
2023/01/19 07:05:53;;;;;;;9.70;1.20;;;2.60;99.90;;;;;;5012848;28;20098;-61
2023/01/19 07:08:20;;;;;;;12.02;2.28;;;2.60;99.90;;;;;;4997866;28;20084;-60
2023/01/19 07:10:45;;;;;;;17.55;1.60;;;2.70;99.90;;;;;;5017132;28;20045;-60
2023/01/19 07:13:11;;;;;;;14.02;1.80;;;2.70;99.90;;;;;;5033829;28;20047;-60
2023/01/19 07:15:37;;;;;;;8.43;1.80;;;2.80;99.90;;;;;;5037909;28;20044;-59
2023/01/19 07:18:06;;;;;;;11.65;1.40;;;2.80;99.90;;;;;;5043557;28;20044;-60
2023/01/19 07:20:35;;;;;;;7.35;1.15;;;2.80;99.90;;;;;;5044243;28;20053;-60
2023/01/19 07:23:01;;;;;;;8.40;1.38;;;2.90;99.90;;;;;;5046878;28;20040;-60
2023/01/19 07:25:28;;;;;;;7.03;1.30;;;2.90;99.90;;;;;;5025367;28;20059;-60
2023/01/19 07:28:00;;;;;;;12.38;2.20;;;2.90;99.90;;;;;;5045923;28;20041;-60
2023/01/19 07:30:26;;;;;;;12.10;1.67;;;3.00;99.90;;;;;;5036545;28;20045;-59
2023/01/19 07:32:58;;;;;;;10.82;1.75;;;3.00;99.90;;;;;;5001855;28;20045;-60
2023/01/19 07:35:24;;;;;;;16.57;1.90;;;3.00;99.90;;;;;;5019412;28;20955;-60
2023/01/19 07:37:50;;;;;;;14.27;1.70;;;3.00;99.90;;;;;;5044238;28;20044;-60
2023/01/19 07:40:17;;;;;;;14.82;2.13;;;3.00;99.90;;;;;;5046676;28;20514;-60
2023/01/19 07:42:48;;;;;;;13.35;2.50;;;3.00;99.90;;;;;;5044889;28;20052;-61
2023/01/19 07:45:15;;;;;;;13.32;2.58;;;3.00;99.90;;;;;;5026929;28;20517;-60
2023/01/19 07:47:47;;;;;;;20.90;2.30;;;3.00;99.90;;;;;;4994516;28;20041;-60
2023/01/19 07:50:14;;;;;;;15.70;2.63;;;3.10;99.90;;;;;;5042322;28;20446;-60
2023/01/19 07:52:41;;;;;;;15.80;2.28;;;3.10;99.90;;;;;;5045274;28;20060;-61
2023/01/19 07:55:08;;;;;;;14.93;2.70;;;3.20;99.90;;;;;;5027226;28;20930;-60
2023/01/19 07:57:35;;;;;;;11.43;1.95;;;3.20;99.90;;;;;;5042874;28;20059;-61
2023/01/19 08:00:02;;;;;;;9.75;1.63;;;3.20;99.90;;;;;;5044293;28;20044;-60
2023/01/19 08:02:28;;;;;;;13.50;1.85;;;3.30;99.90;;;;;;5042847;28;20403;-61
2023/01/19 08:04:54;;;;;;;11.13;2.00;;;3.30;99.90;;;;;;5043985;28;20163;-60
2023/01/19 08:07:20;;;;;;;11.82;3.08;;;3.30;99.90;;;;;;5045731;28;20448;-60
2023/01/19 08:09:46;;;;;;;8.27;1.63;;;3.40;99.90;;;;;;5030189;28;20037;-61
2023/01/19 08:12:12;;;;;;;8.82;1.67;;;3.40;99.90;;;;;;5044153;28;20041;-61
2023/01/19 08:14:38;;;;;;;13.23;2.30;;;3.40;99.90;;;;;;5046647;28;20040;-60
2023/01/19 08:17:03;;;;;;;13.07;1.90;;;3.40;99.90;;;;;;5016193;28;20501;-61
2023/01/19 08:19:29;;;;;;;16.05;2.33;;;3.40;99.90;;;;;;5042855;28;20118;-61
2023/01/19 08:21:57;;;;;;;13.23;2.30;;;3.50;99.90;;;;;;5044331;28;20933;-60
2023/01/19 08:24:27;;;;;;;16.20;2.58;;;3.50;99.90;;;;;;5026385;28;20075;-61
2023/01/19 08:27:02;;;;;;;14.98;2.30;;;3.50;99.90;;;;;;5045854;28;20122;-61
2023/01/19 08:29:32;;;;;;;10.52;2.10;;;3.60;99.90;;;;;;5027223;28;20052;-61
2023/01/19 08:31:58;;;;;;;18.17;2.30;;;3.60;99.90;;;;;;5042286;28;20048;-60
2023/01/19 08:34:24;;;;;;;15.48;2.63;;;3.70;99.90;;;;;;5045537;28;20037;-60
2023/01/19 08:36:50;;;;;;;9.25;2.20;;;3.60;99.90;;;;;;5041520;28;20414;-60
2023/01/19 08:39:17;;;;;;;16.20;2.08;;;3.70;99.90;;;;;;5007209;28;20049;-60
2023/01/19 08:41:43;;;;;;;8.27;2.22;;;3.60;99.90;;;;;;5045875;28;20093;-60
2023/01/19 08:44:09;;;;;;;16.73;2.70;;;3.70;99.90;;;;;;5042625;28;20155;-61
2023/01/19 08:46:35;;;;;;;13.32;2.22;;;3.70;99.90;;;;;;5042577;28;20041;-60
2023/01/19 08:49:01;;;;;;;14.60;2.22;;;3.70;99.90;;;;;;5044186;28;20186;-61
2023/01/19 08:51:26;;;;;;;10.80;2.40;;;3.80;99.90;;;;;;5044475;28;20052;-60
2023/01/19 08:53:52;;;;;;;16.50;2.58;;;3.80;99.90;;;;;;5028846;28;20037;-60
2023/01/19 08:56:18;;;;;;;14.57;2.30;;;3.80;99.90;;;;;;5026319;28;20033;-61
2023/01/19 08:58:45;;;;;;;24.23;2.40;;;3.80;99.90;;;;;;5046143;28;20048;-61
2023/01/19 09:01:19;;;;;;;16.75;2.63;;;3.80;99.90;;;;;;5022317;28;20364;-61
2023/01/19 09:03:45;;;;;;;21.02;3.63;;;3.80;99.90;;;;;;5024214;28;20121;-60
2023/01/19 09:06:15;;;;;;;27.15;3.05;;;3.80;99.90;;;;;;5027153;28;20080;-61
2023/01/19 09:08:42;;;;;;;17.67;2.63;;;3.80;99.90;;;;;;5027544;28;20048;-61
2023/01/19 09:11:13;;;;;;;16.50;2.55;;;3.80;99.90;;;;;;5043986;28;20364;-61
2023/01/19 09:13:40;;;;;;;12.07;2.00;;;3.80;99.90;;;;;;5045522;28;20037;-61
2023/01/19 09:16:07;;;;;;;17.40;2.47;;;3.80;99.90;;;;;;5042424;28;20045;-60
2023/01/19 09:18:34;;;;;;;16.48;2.42;;;3.70;99.90;;;;;;5008147;28;20040;-61
2023/01/19 09:21:00;;;;;;;15.55;2.55;;;3.70;99.90;;;;;;5027787;28;20053;-61
2023/01/19 09:23:27;;;;;;;14.38;2.10;;;3.60;99.90;;;;;;5044119;28;20106;-59
2023/01/19 09:25:58;;;;;;;12.27;2.03;;;3.50;99.90;;;;;;5044039;28;20087;-60
2023/01/19 09:28:24;;;;;;;13.45;2.10;;;3.50;99.90;;;;;;5027734;28;20045;-61
2023/01/19 09:30:50;;;;;;;16.05;2.42;;;3.50;99.90;;;;;;5041080;28;20044;-61
2023/01/19 09:33:17;;;;;;;17.88;2.15;;;3.40;99.90;;;;;;5023763;28;20060;-60
2023/01/19 09:35:45;;;;;;;12.50;1.90;;;3.40;99.90;;;;;;5027561;28;20124;-61
2023/01/19 09:38:11;;;;;;;6.72;1.55;;;3.40;99.90;;;;;;5026669;28;20049;-61
2023/01/19 09:40:48;;;;;;;11.43;1.63;;;3.40;99.90;;;;;;5044672;28;20037;-60
2023/01/19 09:43:22;;;;;;;14.88;1.80;;;3.40;99.90;;;;;;5043720;28;20049;-60
2023/01/19 09:45:56;;;;;;;8.48;1.70;;;3.50;99.90;;;;;;5044198;28;20053;-60
2023/01/19 09:48:40;;;;;;;10.57;1.98;;;3.50;99.90;;;;;;5043072;28;20053;-61
2023/01/19 09:51:21;;;;;;;10.88;1.50;;;3.60;99.90;;;;;;5046210;28;20045;-60
2023/01/19 09:54:04;;;;;;;12.82;1.95;;;3.70;99.90;;;;;;5045151;28;20048;-61
2023/01/19 09:56:31;;;;;;;12.35;2.03;;;3.80;99.90;;;;;;5025365;28;20045;-61
2023/01/19 09:58:58;;;;;;;7.65;1.40;;;3.80;99.90;;;;;;5027758;28;20080;-61
2023/01/19 10:01:32;;;;;;;13.25;1.77;;;3.90;99.90;;;;;;5008751;28;20488;-61
2023/01/19 10:04:35;;;;;;;12.10;2.20;;;4.00;99.90;;;;;;5041497;28;20048;-61
2023/01/19 10:07:30;;;;;;;9.95;1.73;;;4.10;99.90;;;;;;5043247;28;20045;-61
2023/01/19 10:10:14;;;;;;;11.82;1.77;;;4.20;99.90;;;;;;5043232;28;20053;-60
2023/01/19 10:13:11;;;;;;;9.10;1.60;;;4.30;99.90;;;;;;5025241;28;20098;-61
2023/01/19 10:16:07;;;;;;;11.02;2.08;;;4.40;99.90;;;;;;5044145;28;20488;-61
2023/01/19 10:18:42;;;;;;;12.52;2.38;;;4.50;99.90;;;;;;4984811;28;22019;-61
2023/01/19 10:21:09;;;;;;;13.13;2.35;;;4.60;99.90;;;;;;5027053;28;20088;-61
2023/01/19 10:23:38;;;;;;;12.60;2.15;;;4.70;99.90;;;;;;5046623;28;20103;-61
2023/01/19 10:26:24;;;;;;;17.88;2.85;;;4.80;99.90;;;;;;5046680;28;20057;-61
2023/01/19 10:28:56;;;;;;;11.73;1.90;;;5.00;99.90;;;;;;5029195;28;20049;-61
2023/01/19 10:31:23;;;;;;;19.92;2.67;;;5.00;99.90;;;;;;5046035;28;20044;-60
2023/01/19 10:33:50;;;;;;;12.63;2.30;;;5.10;99.90;;;;;;5028111;28;20136;-61
2023/01/19 10:36:18;;;;;;;27.85;2.92;;;5.10;99.90;;;;;;5048508;28;20041;-61
2023/01/19 10:38:45;;;;;;;10.88;2.00;;;5.20;99.90;;;;;;5048093;28;20051;-60
2023/01/19 10:41:17;;;;;;;17.45;2.25;;;5.40;99.90;;;;;;5028331;28;20091;-61
2023/01/19 10:43:45;;;;;;;13.63;2.15;;;5.40;99.90;;;;;;5029864;28;20143;-61
2023/01/19 10:46:21;;;;;;;10.35;1.73;;;5.50;99.90;;;;;;5045252;28;20044;-61
2023/01/19 10:48:52;;;;;;;19.80;2.28;;;5.70;99.90;;;;;;5046669;28;20037;-61
2023/01/19 10:51:18;;;;;;;12.30;1.98;;;5.70;99.90;;;;;;5049057;28;20049;-61
2023/01/19 10:53:59;;;;;;;10.57;2.33;;;5.80;99.90;;;;;;5029878;28;20055;-61
2023/01/19 10:56:33;;;;;;;14.13;2.33;;;5.90;99.90;;;;;;5025606;28;20079;-60
2023/01/19 10:59:02;;;;;;;11.40;2.08;;;5.90;99.90;;;;;;5009277;28;20190;-60
2023/01/19 11:01:29;;;;;;;15.93;1.88;;;6.00;99.90;;;;;;5027392;28;20036;-61
2023/01/19 11:04:04;;;;;;;10.23;2.22;;;6.10;99.90;;;;;;5020133;28;20451;-61
2023/01/19 11:06:31;;;;;;;12.10;2.55;;;6.20;99.90;;;;;;5046559;28;20044;-60
2023/01/19 11:09:29;;;;;;;12.38;2.05;;;6.30;99.90;;;;;;5044644;28;20056;-61
2023/01/19 11:11:55;;;;;;;12.25;2.28;;;6.40;99.90;;;;;;5002598;28;20049;-60
2023/01/19 11:14:23;;;;;;;14.30;2.60;;;6.50;99.90;;;;;;5026976;28;20483;-60
2023/01/19 11:16:53;;;;;;;6.82;2.00;;;6.40;99.90;;;;;;5027083;28;20049;-61
2023/01/19 11:19:28;;;;;;;11.00;1.88;;;6.30;99.90;;;;;;5044152;28;20144;-61
2023/01/19 11:22:10;;;;;;;13.00;2.13;;;6.20;99.90;;;;;;5028677;28;20499;-61
2023/01/19 11:24:37;;;;;;;11.82;2.00;;;6.30;99.90;;;;;;5029287;28;20123;-61
2023/01/19 11:27:03;;;;;;;13.13;1.83;;;6.30;99.90;;;;;;5030711;28;20049;-61
2023/01/19 11:29:30;;;;;;;13.73;2.50;;;6.40;99.90;;;;;;5046016;28;20052;-61
2023/01/19 11:32:17;;;;;;;14.43;2.30;;;6.40;99.90;;;;;;5011164;28;20037;-61
2023/01/19 11:34:43;;;;;;;9.60;1.73;;;6.40;99.90;;;;;;5027654;28;20044;-61
2023/01/19 11:37:17;;;;;;;11.60;2.05;;;6.50;99.90;;;;;;5046203;28;20045;-61
2023/01/19 11:39:57;;;;;;;13.93;1.92;;;6.50;99.90;;;;;;5033754;28;20084;-60
2023/01/19 11:42:25;;;;;;;11.30;2.30;;;6.60;99.90;;;;;;5030530;28;20544;-61
2023/01/19 11:45:00;;;;;;;16.58;2.30;;;6.60;99.90;;;;;;5045482;28;20049;-61
2023/01/19 11:47:41;;;;;;;18.40;2.35;;;6.60;99.90;;;;;;5025343;28;20048;-61
2023/01/19 11:50:20;;;;;;;14.93;2.22;;;6.50;99.90;;;;;;5046469;28;20052;-61
2023/01/19 11:53:13;;;;;;;11.27;1.95;;;6.50;99.90;;;;;;5001969;28;20479;-61
2023/01/19 11:55:48;;;;;;;18.13;2.72;;;6.60;99.90;;;;;;5027024;28;20045;-61
2023/01/19 11:58:16;;;;;;;12.95;2.08;;;6.70;99.90;;;;;;5016979;28;20051;-61
2023/01/19 12:01:07;;;;;;;16.23;2.08;;;6.80;99.90;;;;;;5044439;28;20460;-61
2023/01/19 12:03:39;;;;;;;8.35;1.33;;;6.80;99.90;;;;;;5044200;28;20076;-61
2023/01/19 12:06:40;;;;;;;12.73;1.58;;;6.70;99.90;;;;;;5044769;28;20079;-61
2023/01/19 12:09:11;;;;;;;9.18;1.80;;;6.50;99.90;;;;;;4992607;28;20080;-61
2023/01/19 12:11:54;;;;;;;11.35;1.55;;;6.40;99.90;;;;;;5044740;28;20045;-61
2023/01/19 12:14:30;;;;;;;11.65;1.52;;;6.20;99.90;;;;;;5028366;28;20602;-61
2023/01/19 12:16:59;;;;;;;7.82;1.42;;;6.10;99.90;;;;;;5044967;28;20059;-61
2023/01/19 12:19:40;;;;;;;7.20;1.67;;;5.90;99.90;;;;;;5044798;28;20491;-61
2023/01/19 12:22:15;;;;;;;7.45;1.90;;;5.80;99.90;;;;;;5045367;28;20045;-61
2023/01/19 12:24:51;;;;;;;11.45;1.70;;;5.70;99.90;;;;;;5045819;28;20049;-61
2023/01/19 12:27:42;;;;;;;10.65;1.80;;;5.60;99.90;;;;;;5034656;28;20475;-61
2023/01/19 12:30:19;;;;;;;11.45;1.60;;;5.50;99.90;;;;;;5027829;28;20042;-61
2023/01/19 12:32:46;;;;;;;9.35;1.77;;;5.50;99.90;;;;;;5041981;28;20048;-61
2023/01/19 12:35:49;;;;;;;7.45;1.83;;;5.50;99.90;;;;;;5027136;28;20051;-61
2023/01/19 12:39:03;;;;;;;5.68;1.67;;;5.50;99.90;;;;;;5027960;28;20049;-61
2023/01/19 12:41:37;;;;;;;11.13;1.50;;;5.60;99.90;;;;;;5029858;28;20123;-61
2023/01/19 12:44:12;;;;;;;10.80;1.45;;;5.60;99.90;;;;;;5027460;28;20058;-61
2023/01/19 12:46:53;;;;;;;5.53;1.40;;;5.50;99.90;;;;;;4998972;28;20041;-61
2023/01/19 12:49:33;;;;;;;7.60;1.40;;;5.60;99.90;;;;;;5037616;28;20083;-61
2023/01/19 12:52:11;;;;;;;12.88;1.58;;;5.60;99.90;;;;;;5022865;28;20049;-61
2023/01/19 12:54:39;;;;;;;12.93;1.60;;;5.60;99.90;;;;;;5045965;28;20072;-60
2023/01/19 12:57:17;;;;;;;8.82;1.17;;;5.60;99.90;;;;;;5018574;28;20055;-61
2023/01/19 12:59:43;;;;;;;8.10;1.20;;;5.60;99.90;;;;;;5015573;28;20060;-61
2023/01/19 13:02:26;;;;;;;9.10;1.70;;;5.60;99.90;;;;;;5041845;28;20522;-61
2023/01/19 13:05:16;;;;;;;7.97;1.67;;;5.50;99.90;;;;;;5044297;28;20045;-61
2023/01/19 13:08:00;;;;;;;8.77;1.45;;;5.50;99.90;;;;;;5044905;28;20068;-61
2023/01/19 13:10:51;;;;;;;8.73;1.42;;;5.40;99.90;;;;;;5026148;28;20093;-61
2023/01/19 13:13:20;;;;;;;8.38;1.50;;;5.30;99.90;;;;;;5044740;28;20040;-61
2023/01/19 13:15:46;;;;;;;10.70;1.50;;;5.30;99.90;;;;;;5025252;28;20075;-61
2023/01/19 13:18:31;;;;;;;6.82;1.55;;;5.30;99.90;;;;;;5021552;28;20049;-62
2023/01/19 13:21:32;;;;;;;6.97;1.40;;;5.30;99.90;;;;;;5003009;28;20123;-61